Time;durP1;ratioP1;P1;durP2;ratioP2;P2;SDS_P1;SDS_P2;PMS_P1;PMS_P2;Temp;Humidity;BMP_temperature;BMP_pressure;BME280_temperature;BME280_humidity;BME280_pressure;Samples;Min_cycle;Max_cycle;Signal;HPM_P1;HPM_P2
2021/10/08 00:00:36;;;;;;;24.63;8.23;;;;;;;9.42;55.72;102231.55;1723903;81;21044;-58
2021/10/08 00:03:03;;;;;;;18.35;6.25;;;;;;;9.41;55.74;102237.37;1727269;81;21502;-55
2021/10/08 00:05:30;;;;;;;14.43;6.00;;;;;;;9.38;55.12;102238.69;1722405;81;21330;-54
2021/10/08 00:07:59;;;;;;;18.73;6.40;;;;;;;9.34;55.49;102244.97;1726998;81;21089;-54
2021/10/08 00:10:26;;;;;;;22.48;7.40;;;;;;;9.29;55.73;102230.73;1721368;81;21781;-54
2021/10/08 00:12:54;;;;;;;20.02;6.97;;;;;;;9.28;55.72;102252.61;1719905;81;21020;-54
2021/10/08 00:15:22;;;;;;;22.55;6.75;;;;;;;9.26;55.53;102246.34;1726139;81;21036;-55
2021/10/08 00:17:49;;;;;;;24.12;7.00;;;;;;;9.22;55.59;102263.33;1722768;81;21135;-55
2021/10/08 00:20:19;;;;;;;19.25;7.05;;;;;;;9.15;55.77;102230.34;1726347;81;21109;-53
2021/10/08 00:22:46;;;;;;;26.57;7.12;;;;;;;9.08;56.10;102232.63;1719147;81;21139;-54
2021/10/08 00:25:13;;;;;;;28.67;6.97;;;;;;;9.04;56.23;102217.48;1721662;81;22171;-55
2021/10/08 00:27:40;;;;;;;16.62;6.30;;;;;;;9.01;56.65;102225.53;1718540;81;21098;-54
2021/10/08 00:30:08;;;;;;;19.60;6.53;;;;;;;8.97;56.95;102235.81;1721212;81;21100;-53
2021/10/08 00:32:36;;;;;;;31.42;7.22;;;;;;;8.93;56.72;102236.27;1726833;81;21476;-53
2021/10/08 00:35:05;;;;;;;16.27;6.40;;;;;;;8.91;56.96;102227.80;1725406;81;21129;-54
2021/10/08 00:37:33;;;;;;;19.17;6.33;;;;;;;8.86;56.50;102251.45;1711747;81;21040;-54
2021/10/08 00:40:00;;;;;;;22.13;6.60;;;;;;;8.83;56.72;102236.75;1719667;81;21053;-54
2021/10/08 00:42:28;;;;;;;16.35;5.90;;;;;;;8.79;56.89;102224.30;1737026;80;21066;-54
2021/10/08 00:44:55;;;;;;;26.68;6.55;;;;;;;8.74;57.28;102240.34;1741642;80;21054;-52
2021/10/08 00:47:21;;;;;;;17.15;6.05;;;;;;;8.72;57.38;102243.91;1755354;80;21120;-52
2021/10/08 00:49:49;;;;;;;22.70;6.10;;;;;;;8.69;57.25;102235.90;1740849;80;21487;-52
2021/10/08 00:52:17;;;;;;;13.30;5.87;;;;;;;8.65;57.45;102238.14;1740681;80;21071;-52
2021/10/08 00:54:44;;;;;;;31.42;6.17;;;;;;;8.60;57.85;102235.05;1738601;80;21070;-54
2021/10/08 00:57:13;;;;;;;22.52;5.80;;;;;;;8.59;58.00;102248.41;1745059;80;22210;-53
2021/10/08 00:59:40;;;;;;;22.07;5.70;;;;;;;8.59;58.08;102243.96;1737462;80;21149;-53
2021/10/08 01:02:07;;;;;;;21.33;5.55;;;;;;;8.59;57.75;102257.77;1739488;80;21099;-52
2021/10/08 01:04:34;;;;;;;19.90;5.80;;;;;;;8.59;57.72;102263.11;1736383;80;21490;-54
2021/10/08 01:07:02;;;;;;;12.53;4.62;;;;;;;8.57;57.88;102247.09;1739847;80;21083;-52
2021/10/08 01:09:29;;;;;;;24.82;6.20;;;;;;;8.55;57.89;102253.32;1740065;80;21070;-52
2021/10/08 01:11:56;;;;;;;20.65;5.72;;;;;;;8.53;58.18;102246.66;1738462;80;21106;-53
2021/10/08 01:14:23;;;;;;;18.15;6.55;;;;;;;8.51;58.05;102259.14;1757766;80;21133;-54
2021/10/08 01:16:52;;;;;;;17.62;5.92;;;;;;;8.49;58.15;102247.97;1743284;80;21130;-52
2021/10/08 01:19:19;;;;;;;26.33;6.58;;;;;;;8.47;58.16;102257.31;1747686;80;21031;-52
2021/10/08 01:21:48;;;;;;;21.10;6.12;;;;;;;8.45;58.27;102240.39;1740168;80;21130;-52
2021/10/08 01:24:15;;;;;;;27.58;5.90;;;;;;;8.43;58.50;102254.20;1739784;80;21115;-52
2021/10/08 01:26:42;;;;;;;26.82;7.58;;;;;;;8.39;58.41;102245.75;1741201;80;21087;-55
2021/10/08 01:29:10;;;;;;;25.45;6.53;;;;;;;8.37;58.40;102242.20;1744605;80;21110;-54
2021/10/08 01:31:37;;;;;;;23.83;6.37;;;;;;;8.34;58.31;102256.91;1719484;80;21548;-52
2021/10/08 01:34:05;;;;;;;20.57;6.33;;;;;;;8.33;58.65;102279.18;1743679;80;21099;-53
2021/10/08 01:36:33;;;;;;;21.68;7.03;;;;;;;8.30;58.79;102271.61;1737724;80;21198;-53
2021/10/08 01:39:02;;;;;;;21.62;6.20;;;;;;;8.30;59.12;102266.70;1745397;80;21030;-53
2021/10/08 01:41:31;;;;;;;20.20;6.37;;;;;;;8.28;59.29;102262.68;1739442;80;21633;-53
2021/10/08 01:43:58;;;;;;;21.17;5.80;;;;;;;8.28;59.33;102245.77;1722834;81;21317;-53
2021/10/08 01:46:25;;;;;;;17.87;6.08;;;;;;;8.28;59.28;102267.15;1731965;81;21677;-53
2021/10/08 01:48:53;;;;;;;23.18;6.75;;;;;;;8.28;59.46;102247.98;1732859;80;21137;-53
2021/10/08 01:51:22;;;;;;;22.80;6.60;;;;;;;8.28;59.68;102278.71;1718877;81;21528;-53
2021/10/08 01:53:49;;;;;;;19.90;6.47;;;;;;;8.30;59.83;102276.95;1701338;81;21047;-53
2021/10/08 01:56:16;;;;;;;25.02;6.05;;;;;;;8.34;59.56;102274.28;1723736;81;21571;-52
2021/10/08 01:58:45;;;;;;;18.73;6.67;;;;;;;8.36;59.40;102259.12;1724854;81;21479;-54
2021/10/08 02:01:11;;;;;;;21.30;6.15;;;;;;;8.35;59.12;102257.34;1701367;82;21580;-53
2021/10/08 02:03:39;;;;;;;21.97;6.15;;;;;;;8.34;59.24;102260.45;1724253;81;21076;-53
2021/10/08 02:06:06;;;;;;;29.07;6.50;;;;;;;8.33;59.41;102263.14;1722853;81;22132;-53
2021/10/08 02:08:35;;;;;;;24.98;6.90;;;;;;;8.31;59.58;102262.70;1721552;81;21091;-53
2021/10/08 02:11:04;;;;;;;13.40;5.92;;;;;;;8.31;59.45;102252.02;1722257;81;21091;-53
2021/10/08 02:13:31;;;;;;;19.35;6.53;;;;;;;8.30;59.40;102278.30;1719095;81;21522;-53
2021/10/08 02:15:59;;;;;;;18.98;6.25;;;;;;;8.30;59.64;102249.33;1725360;81;21406;-53
2021/10/08 02:18:28;;;;;;;20.40;6.22;;;;;;;8.27;59.57;102279.61;1702386;82;21115;-53
2021/10/08 02:20:55;;;;;;;22.55;6.97;;;;;;;8.29;59.61;102259.15;1723630;81;21265;-54
2021/10/08 02:23:22;;;;;;;13.30;5.83;;;;;;;8.30;59.58;102252.91;1729234;81;21052;-52
2021/10/08 02:25:50;;;;;;;18.45;6.53;;;;;;;8.28;59.56;102257.33;1717225;83;21151;-53
2021/10/08 02:28:17;;;;;;;21.85;7.03;;;;;;;8.27;59.54;102263.57;1723862;81;21732;-53
2021/10/08 02:30:44;;;;;;;29.02;7.20;;;;;;;8.25;59.47;102261.34;1720978;81;21552;-53
2021/10/08 02:33:12;;;;;;;24.72;6.53;;;;;;;8.22;59.06;102273.38;1725519;81;21137;-54
2021/10/08 02:35:40;;;;;;;28.27;7.62;;;;;;;8.19;59.14;102265.38;1719588;81;21051;-52
2021/10/08 02:38:07;;;;;;;18.92;6.87;;;;;;;8.14;59.10;102253.34;1722881;81;21510;-52
2021/10/08 02:40:35;;;;;;;28.87;8.00;;;;;;;8.14;58.97;102261.82;1721470;81;21248;-53
2021/10/08 02:43:03;;;;;;;16.82;6.58;;;;;;;8.12;58.81;102277.84;1726784;81;32515;-53
2021/10/08 02:45:32;;;;;;;23.20;6.40;;;;;;;8.11;58.85;102255.15;1722698;81;21402;-53
2021/10/08 02:47:59;;;;;;;21.70;6.78;;;;;;;8.05;58.96;102276.50;1719447;81;20945;-53
2021/10/08 02:50:26;;;;;;;24.60;7.10;;;;;;;7.99;59.27;102260.05;1725086;81;21172;-53
2021/10/08 02:52:54;;;;;;;20.10;6.42;;;;;;;7.93;59.66;102254.69;1725908;81;21508;-54
2021/10/08 02:55:21;;;;;;;17.65;6.90;;;;;;;7.88;59.72;102256.04;1722534;81;21091;-53
2021/10/08 02:57:48;;;;;;;23.75;7.03;;;;;;;7.83;59.86;102289.84;1724658;81;21110;-53
2021/10/08 03:00:15;;;;;;;19.77;6.20;;;;;;;7.77;60.05;102280.49;1725004;81;21032;-55
2021/10/08 03:02:42;;;;;;;21.23;7.12;;;;;;;7.71;60.12;102264.02;1690848;81;21121;-55
2021/10/08 03:05:09;;;;;;;16.77;6.35;;;;;;;7.65;60.24;102274.27;1704798;82;21432;-53
2021/10/08 03:07:37;;;;;;;16.50;5.97;;;;;;;7.62;60.35;102267.56;1718891;81;21044;-53
2021/10/08 03:10:06;;;;;;;24.15;7.42;;;;;;;7.58;60.65;102285.37;1723045;81;21043;-55
2021/10/08 03:12:33;;;;;;;21.77;6.65;;;;;;;7.54;61.08;102280.92;1721148;81;21100;-54
2021/10/08 03:15:03;;;;;;;24.77;6.90;;;;;;;7.49;61.29;102273.78;1715945;81;21057;-54
2021/10/08 03:17:30;;;;;;;19.32;6.47;;;;;;;7.43;61.46;102280.89;1724191;81;21029;-53
2021/10/08 03:19:58;;;;;;;17.45;6.47;;;;;;;7.39;61.93;102268.86;1725826;81;21620;-54
2021/10/08 03:22:25;;;;;;;18.92;6.40;;;;;;;7.35;62.27;102283.95;1724269;81;21096;-53
2021/10/08 03:24:52;;;;;;;25.48;7.47;;;;;;;7.32;62.30;102259.94;1715059;81;21094;-55
2021/10/08 03:27:20;;;;;;;15.05;6.30;;;;;;;7.29;62.10;102278.61;1730049;81;21121;-55
2021/10/08 03:29:47;;;;;;;17.07;6.35;;;;;;;7.25;62.10;102304.84;1715860;81;21064;-55
2021/10/08 03:32:14;;;;;;;18.23;6.15;;;;;;;7.20;62.09;102263.92;1735446;81;21055;-54
2021/10/08 03:34:41;;;;;;;17.00;6.17;;;;;;;7.14;62.22;102269.66;1736291;81;20996;-55
2021/10/08 03:37:12;;;;;;;20.10;6.15;;;;;;;7.10;62.59;102267.00;1729484;79;22096;-53
2021/10/08 03:39:41;;;;;;;17.35;6.70;;;;;;;7.05;62.65;102277.64;1725425;80;21483;-55
2021/10/08 03:42:12;;;;;;;18.75;5.62;;;;;;;7.04;62.45;102278.52;1723218;80;21067;-54
2021/10/08 03:44:39;;;;;;;22.07;6.00;;;;;;;7.00;62.61;102282.94;1740907;80;21570;-55
2021/10/08 03:47:20;;;;;;;16.90;6.17;;;;;;;6.97;62.54;102282.06;1742757;80;21051;-54
2021/10/08 03:49:44;;;;;;;22.13;6.42;;;;;;;6.93;62.50;102270.47;1742588;80;21023;-55
2021/10/08 03:52:11;;;;;;;23.42;5.80;;;;;;;6.90;62.71;102278.46;1738451;80;21149;-53
2021/10/08 03:54:38;;;;;;;16.75;6.08;;;;;;;6.85;62.71;102278.43;1742120;80;21548;-56
2021/10/08 03:57:05;;;;;;;15.03;6.20;;;;;;;6.84;62.95;102277.08;1742492;80;21125;-53
2021/10/08 03:59:32;;;;;;;19.20;6.22;;;;;;;6.81;62.71;102264.64;1739887;80;21482;-54
2021/10/08 04:02:00;;;;;;;18.73;5.33;;;;;;;6.78;62.84;102278.39;1742580;80;21077;-53
2021/10/08 04:04:27;;;;;;;23.70;6.45;;;;;;;6.74;63.06;102262.38;1739528;80;21130;-52
2021/10/08 04:06:55;;;;;;;15.53;6.37;;;;;;;6.74;63.06;102272.13;1742314;80;21875;-55
2021/10/08 04:09:22;;;;;;;16.23;5.42;;;;;;;6.74;62.93;102265.05;1742531;80;21067;-55
2021/10/08 04:11:50;;;;;;;21.65;6.50;;;;;;;6.76;62.65;102282.39;1738009;80;21094;-55
2021/10/08 04:14:18;;;;;;;18.87;6.10;;;;;;;6.76;62.77;102280.16;1739689;80;21151;-55
2021/10/08 04:16:45;;;;;;;14.53;5.55;;;;;;;6.75;62.95;102273.95;1697877;80;21815;-55
2021/10/08 04:19:11;;;;;;;19.23;6.28;;;;;;;6.75;63.20;102272.62;1738988;80;21515;-54
2021/10/08 04:21:39;;;;;;;18.32;5.55;;;;;;;6.79;63.22;102270.84;1733912;80;21067;-53
2021/10/08 04:24:06;;;;;;;19.67;5.78;;;;;;;6.79;63.14;102270.41;1744960;80;21498;-53
2021/10/08 04:26:33;;;;;;;18.20;5.67;;;;;;;6.78;62.80;102273.95;1742096;80;21018;-53
2021/10/08 04:29:01;;;;;;;17.67;6.20;;;;;;;6.78;62.82;102279.30;1742948;80;21795;-53
2021/10/08 04:31:29;;;;;;;19.73;5.97;;;;;;;6.79;62.95;102278.41;1741814;80;21982;-53
2021/10/08 04:33:56;;;;;;;15.38;5.53;;;;;;;6.91;62.64;102278.00;1739148;80;21737;-53
2021/10/08 04:36:24;;;;;;;17.92;6.10;;;;;;;7.01;61.99;102274.05;1738382;80;21553;-52
2021/10/08 04:38:52;;;;;;;15.85;5.70;;;;;;;7.08;61.71;102280.31;1740843;80;21079;-52
2021/10/08 04:41:19;;;;;;;21.68;5.72;;;;;;;7.10;61.33;102281.20;1741647;80;21128;-52
2021/10/08 04:43:47;;;;;;;16.17;5.40;;;;;;;7.09;61.26;102271.42;1722695;81;21442;-53
2021/10/08 04:46:14;;;;;;;16.67;6.05;;;;;;;7.10;61.17;102285.20;1723015;81;21041;-53
2021/10/08 04:48:41;;;;;;;17.48;5.28;;;;;;;7.06;61.18;102284.75;1722668;81;21039;-53
2021/10/08 04:51:08;;;;;;;20.97;5.60;;;;;;;7.05;61.01;102290.06;1729974;81;21049;-53
2021/10/08 04:53:36;;;;;;;17.73;5.75;;;;;;;7.04;60.66;102278.52;1724500;81;21121;-53
2021/10/08 04:56:03;;;;;;;16.00;5.42;;;;;;;7.05;60.63;102288.73;1723641;81;21096;-53
2021/10/08 04:58:33;;;;;;;15.93;5.15;;;;;;;7.08;60.51;102282.98;1723389;81;21053;-54
2021/10/08 05:01:00;;;;;;;17.37;5.35;;;;;;;7.17;59.40;102276.33;1723494;81;21017;-54
2021/10/08 05:03:27;;;;;;;13.50;5.15;;;;;;;7.21;59.37;102277.24;1721735;81;21044;-53
2021/10/08 05:05:55;;;;;;;14.68;5.35;;;;;;;7.25;58.37;102279.03;1720667;81;21131;-52
2021/10/08 05:08:24;;;;;;;12.40;5.33;;;;;;;7.29;58.61;102275.94;1717541;81;21070;-53
2021/10/08 05:10:52;;;;;;;15.83;4.83;;;;;;;7.35;58.43;102283.95;1719443;81;21036;-52
2021/10/08 05:13:20;;;;;;;20.02;5.67;;;;;;;7.42;58.02;102283.11;1710663;81;22284;-53
2021/10/08 05:15:47;;;;;;;17.95;5.53;;;;;;;7.47;57.76;102280.89;1728900;81;21511;-54
2021/10/08 05:18:14;;;;;;;15.72;6.00;;;;;;;7.51;57.76;102297.36;1727916;81;21790;-54
2021/10/08 05:20:43;;;;;;;15.18;5.00;;;;;;;7.50;57.68;102291.11;1731362;81;21542;-53
2021/10/08 05:23:09;;;;;;;12.95;5.25;;;;;;;7.47;57.74;102308.91;1701183;82;21076;-54
2021/10/08 05:25:38;;;;;;;16.20;5.80;;;;;;;7.44;57.52;102286.67;1724209;81;21437;-54
2021/10/08 05:28:06;;;;;;;18.87;5.92;;;;;;;7.46;57.46;102292.00;1722561;81;21405;-55
2021/10/08 05:30:35;;;;;;;13.80;5.30;;;;;;;7.48;57.59;102300.02;1718874;81;21125;-54
2021/10/08 05:33:03;;;;;;;16.20;5.35;;;;;;;7.50;57.66;102296.91;1724453;81;21485;-54
2021/10/08 05:35:31;;;;;;;16.55;5.53;;;;;;;7.51;57.74;102300.02;1724562;81;21028;-54
2021/10/08 05:37:58;;;;;;;15.60;5.10;;;;;;;7.51;57.55;102313.38;1719626;81;21092;-52
2021/10/08 05:40:25;;;;;;;13.00;4.70;;;;;;;7.48;57.45;102310.70;1725347;80;21076;-55
2021/10/08 05:42:53;;;;;;;15.98;5.22;;;;;;;7.42;57.63;102301.80;1725424;80;21428;-54
2021/10/08 05:45:20;;;;;;;15.78;5.37;;;;;;;7.41;58.03;102304.45;1744948;80;21114;-53
2021/10/08 05:47:48;;;;;;;16.50;5.33;;;;;;;7.41;58.01;102312.45;1742401;80;21031;-53
2021/10/08 05:50:15;;;;;;;15.28;5.30;;;;;;;7.39;58.10;102313.77;1706518;81;21309;-53
2021/10/08 05:52:42;;;;;;;18.67;5.60;;;;;;;7.39;58.33;102315.09;1713587;82;21013;-53
2021/10/08 05:55:09;;;;;;;21.82;6.00;;;;;;;7.35;58.54;102310.64;1740392;80;21358;-54
2021/10/08 05:57:36;;;;;;;18.52;5.72;;;;;;;7.33;58.93;102307.08;1747935;80;21471;-53
2021/10/08 06:00:05;;;;;;;19.90;5.70;;;;;;;7.32;59.08;102313.30;1743744;80;21068;-54
2021/10/08 06:02:34;;;;;;;20.17;5.72;;;;;;;7.32;59.19;102319.97;1753836;80;21058;-53
2021/10/08 06:05:02;;;;;;;16.73;5.17;;;;;;;7.30;59.26;102315.08;1720689;81;21089;-54
2021/10/08 06:07:29;;;;;;;21.20;6.50;;;;;;;7.29;59.51;102307.53;1741596;80;21472;-53
2021/10/08 06:09:56;;;;;;;19.15;5.50;;;;;;;7.32;59.95;102309.30;1749010;80;21093;-54
2021/10/08 06:12:23;;;;;;;21.30;6.35;;;;;;;7.36;60.42;102321.77;1722505;80;21083;-54
2021/10/08 06:14:51;;;;;;;17.20;6.10;;;;;;;7.41;60.65;102296.02;1740126;80;21102;-55
2021/10/08 06:17:18;;;;;;;17.80;6.15;;;;;;;7.52;61.32;102324.06;1739714;80;21137;-54
2021/10/08 06:19:45;;;;;;;14.75;6.17;;;;;;;7.62;61.31;102306.27;1737578;79;21103;-53
2021/10/08 06:22:12;;;;;;;14.90;6.03;;;;;;;7.67;61.38;102295.17;1729887;80;21739;-54
2021/10/08 06:24:39;;;;;;;18.73;6.15;;;;;;;7.73;61.43;102295.61;1739938;80;21038;-54
2021/10/08 06:27:06;;;;;;;13.98;4.92;;;;;;;7.77;61.29;102309.87;1724913;80;21091;-54
2021/10/08 06:29:33;;;;;;;12.73;5.62;;;;;;;7.78;61.46;102306.30;1738956;80;21060;-54
2021/10/08 06:32:02;;;;;;;20.50;5.75;;;;;;;7.78;61.43;102307.64;1730927;80;21579;-54
2021/10/08 06:34:29;;;;;;;23.62;6.08;;;;;;;7.81;61.37;102320.56;1726902;80;21085;-53
2021/10/08 06:36:56;;;;;;;18.52;6.45;;;;;;;7.87;61.61;102301.00;1735848;80;21523;-53
2021/10/08 06:39:24;;;;;;;17.48;5.83;;;;;;;7.94;61.79;102316.12;1709698;80;21112;-54
2021/10/08 06:41:52;;;;;;;15.48;6.37;;;;;;;8.05;61.85;102315.23;1735613;80;21093;-54
2021/10/08 06:44:21;;;;;;;21.80;5.42;;;;;;;8.19;62.00;102293.43;1737546;80;21631;-54
2021/10/08 06:46:49;;;;;;;23.07;5.92;;;;;;;8.35;60.94;102302.78;1733018;80;21026;-53
2021/10/08 06:49:16;;;;;;;16.55;5.37;;;;;;;8.53;60.33;102288.09;1741143;80;21481;-53
2021/10/08 06:51:44;;;;;;;21.95;5.87;;;;;;;8.78;59.92;102297.40;1741778;80;21034;-54
2021/10/08 06:54:11;;;;;;;10.03;4.65;;;;;;;9.02;58.96;102299.55;1715606;80;21192;-53
2021/10/08 06:56:40;;;;;;;16.00;5.30;;;;;;;9.23;58.16;102285.17;1732290;80;22413;-55
2021/10/08 06:59:08;;;;;;;24.25;5.50;;;;;;;9.40;56.72;102302.52;1740160;79;21061;-52
2021/10/08 07:01:36;;;;;;;18.32;5.65;;;;;;;9.50;56.62;102310.48;1744532;80;21038;-54
2021/10/08 07:04:04;;;;;;;13.72;5.67;;;;;;;9.58;56.16;102309.98;1733755;80;21099;-54
2021/10/08 07:06:33;;;;;;;16.42;5.83;;;;;;;9.64;56.44;102300.59;1733572;80;21140;-54
2021/10/08 07:09:04;;;;;;;19.55;5.78;;;;;;;9.69;55.78;102306.80;1788531;78;21992;-54
2021/10/08 07:11:32;;;;;;;12.18;5.20;;;;;;;9.71;55.83;102295.63;1784778;78;21032;-54
2021/10/08 07:13:58;;;;;;;16.70;5.22;;;;;;;9.72;54.90;102320.17;1777770;78;21518;-54
2021/10/08 07:16:26;;;;;;;15.78;5.40;;;;;;;9.74;55.55;102304.98;1774528;79;21037;-54
2021/10/08 07:18:55;;;;;;;17.82;5.55;;;;;;;9.80;54.96;102289.75;1781616;78;21048;-54
2021/10/08 07:21:23;;;;;;;16.42;5.45;;;;;;;9.88;55.08;102301.33;1777509;79;21135;-55
2021/10/08 07:23:50;;;;;;;22.65;5.37;;;;;;;9.92;55.29;102296.38;1790947;77;21097;-53
2021/10/08 07:26:18;;;;;;;17.57;5.15;;;;;;;9.97;55.22;102311.09;1780085;78;21069;-54
2021/10/08 07:28:45;;;;;;;20.02;5.08;;;;;;;10.00;54.75;102290.97;1767655;78;21118;-54
2021/10/08 07:31:12;;;;;;;20.43;5.55;;;;;;;9.98;54.83;102284.27;1777403;78;21566;-53
2021/10/08 07:33:39;;;;;;;12.07;5.20;;;;;;;10.00;54.84;102290.50;1782252;78;21945;-53
2021/10/08 07:36:06;;;;;;;17.20;5.72;;;;;;;10.06;55.41;102292.68;1770454;78;21101;-54
2021/10/08 07:38:33;;;;;;;16.65;5.25;;;;;;;10.18;55.85;102327.44;1780038;78;21577;-53
2021/10/08 07:41:00;;;;;;;14.98;5.97;;;;;;;10.30;54.91;102313.95;1777736;78;21570;-53
2021/10/08 07:43:27;;;;;;;18.27;5.35;;;;;;;10.35;54.65;102275.47;1778392;78;21576;-53
2021/10/08 07:45:54;;;;;;;14.68;5.30;;;;;;;10.39;54.23;102287.94;1769627;79;21911;-53
2021/10/08 07:48:22;;;;;;;24.05;6.33;;;;;;;10.37;54.67;102273.66;1714757;81;21052;-53
2021/10/08 07:50:49;;;;;;;16.95;6.03;;;;;;;10.34;54.24;102317.47;1717819;81;21556;-55
2021/10/08 07:53:16;;;;;;;16.17;5.72;;;;;;;10.28;54.34;102295.65;1719414;81;21048;-54
2021/10/08 07:55:43;;;;;;;14.65;4.67;;;;;;;10.25;54.12;102284.92;1722539;81;21036;-54
2021/10/08 07:58:10;;;;;;;16.35;5.37;;;;;;;10.22;54.33;102303.72;1713977;81;21798;-53
2021/10/08 08:00:37;;;;;;;18.17;5.28;;;;;;;10.20;54.33;102288.58;1711866;81;21036;-53
2021/10/08 08:03:04;;;;;;;16.85;5.62;;;;;;;10.19;54.57;102301.07;1718134;81;21631;-53
2021/10/08 08:05:32;;;;;;;25.23;5.42;;;;;;;10.21;54.74;102287.20;1712948;81;21451;-53
2021/10/08 08:07:59;;;;;;;19.50;4.42;;;;;;;10.27;54.21;102307.72;1710837;81;21504;-53
2021/10/08 08:10:26;;;;;;;26.30;5.40;;;;;;;10.30;54.20;102331.37;1717979;82;21150;-54
2021/10/08 08:12:54;;;;;;;14.15;5.08;;;;;;;10.30;54.25;102285.80;1712385;81;21045;-53
2021/10/08 08:15:21;;;;;;;14.50;5.45;;;;;;;10.30;54.67;102301.88;1708648;81;21149;-53
2021/10/08 08:17:48;;;;;;;11.85;4.78;;;;;;;10.30;54.89;102299.20;1716547;81;21161;-53
2021/10/08 08:20:15;;;;;;;18.15;5.50;;;;;;;10.36;53.87;102314.79;1716525;81;21043;-53
2021/10/08 08:22:43;;;;;;;16.60;5.53;;;;;;;10.40;54.11;102283.95;1709850;82;21159;-52
2021/10/08 08:25:11;;;;;;;13.35;4.83;;;;;;;10.43;54.01;102301.78;1710424;81;21118;-53
2021/10/08 08:27:40;;;;;;;16.25;5.60;;;;;;;10.43;53.22;102300.45;1709881;83;21560;-54
2021/10/08 08:30:08;;;;;;;15.45;5.15;;;;;;;10.43;53.53;102328.16;1714092;83;21473;-55
2021/10/08 08:32:35;;;;;;;20.77;5.03;;;;;;;10.43;53.25;102309.83;1711828;81;21094;-53
2021/10/08 08:35:04;;;;;;;19.82;5.05;;;;;;;10.42;53.59;102289.28;1709215;83;21584;-53
2021/10/08 08:37:30;;;;;;;17.70;5.45;;;;;;;10.43;53.32;102284.36;1716097;81;21570;-53
2021/10/08 08:40:00;;;;;;;15.63;5.37;;;;;;;10.49;53.26;102290.98;1713153;81;21119;-53
2021/10/08 08:42:26;;;;;;;16.70;5.00;;;;;;;10.55;53.05;102315.09;1709446;81;21955;-53
2021/10/08 08:44:53;;;;;;;18.05;5.70;;;;;;;10.56;53.55;102294.06;1721580;82;21047;-54
2021/10/08 08:47:21;;;;;;;11.73;4.80;;;;;;;10.59;53.11;102296.71;1723911;81;21936;-53
2021/10/08 08:49:48;;;;;;;20.52;5.53;;;;;;;10.64;52.70;102306.50;1727100;81;21612;-53
2021/10/08 08:52:16;;;;;;;14.90;4.75;;;;;;;10.66;53.50;102297.98;1725042;81;21043;-52
2021/10/08 08:54:44;;;;;;;17.62;5.00;;;;;;;10.71;52.54;102331.01;1729089;80;21076;-54
2021/10/08 08:57:18;;;;;;;15.48;5.03;;;;;;;10.72;52.38;102298.81;1725672;82;21118;-54
2021/10/08 09:00:08;;;;;;;16.37;5.15;;;;;;;10.74;52.85;102320.27;1722296;81;22345;-54
2021/10/08 09:02:36;;;;;;;23.20;5.67;;;;;;;10.79;52.59;102337.64;1722514;81;21063;-54
2021/10/08 09:05:04;;;;;;;16.12;5.20;;;;;;;10.80;53.02;102304.09;1723708;80;21035;-54
2021/10/08 09:07:35;;;;;;;13.68;4.78;;;;;;;10.83;53.71;102296.02;1726736;80;21113;-53
2021/10/08 09:10:17;;;;;;;13.65;4.20;;;;;;;10.88;52.05;102296.84;1723280;80;21059;-53
2021/10/08 09:12:45;;;;;;;18.32;5.08;;;;;;;10.91;53.11;102292.34;1721697;80;21750;-54
2021/10/08 09:15:16;;;;;;;22.07;4.97;;;;;;;10.95;52.62;102288.27;1725949;81;20986;-54
2021/10/08 09:17:43;;;;;;;10.25;4.60;;;;;;;11.02;52.58;102297.14;1719844;80;21043;-54
2021/10/08 09:20:13;;;;;;;18.82;4.47;;;;;;;11.07;51.54;102339.58;1720908;80;21535;-53
2021/10/08 09:22:49;;;;;;;22.20;4.97;;;;;;;11.10;52.22;102308.66;1726882;81;21385;-53
2021/10/08 09:25:30;;;;;;;24.12;4.62;;;;;;;11.13;52.04;102307.75;1730998;80;21091;-54
2021/10/08 09:28:08;;;;;;;30.23;5.25;;;;;;;11.10;51.90;102287.66;1703667;81;20926;-54
2021/10/08 09:30:40;;;;;;;15.78;4.30;;;;;;;11.08;51.44;102299.73;1744351;78;20992;-53
2021/10/08 09:33:11;;;;;;;15.23;4.70;;;;;;;11.03;52.39;102300.26;1779993;78;21422;-53
2021/10/08 09:35:38;;;;;;;12.28;4.60;;;;;;;10.97;52.36;102320.47;1783918;79;21044;-53
2021/10/08 09:38:10;;;;;;;12.90;4.37;;;;;;;11.01;52.68;102299.39;1776328;79;22162;-54
2021/10/08 09:40:47;;;;;;;14.47;4.45;;;;;;;11.08;52.45;102311.82;1783360;78;21064;-54
2021/10/08 09:43:26;;;;;;;17.02;4.62;;;;;;;11.08;51.90;102276.92;1783090;78;21072;-53
2021/10/08 09:45:57;;;;;;;13.48;4.65;;;;;;;11.07;51.13;102293.94;1725929;80;21075;-53
2021/10/08 09:48:41;;;;;;;18.27;5.00;;;;;;;11.04;51.45;102308.75;1720328;82;21019;-54
2021/10/08 09:51:11;;;;;;;14.80;4.50;;;;;;;11.05;50.92;102295.76;1723801;81;21339;-54
2021/10/08 09:53:55;;;;;;;14.00;4.25;;;;;;;11.04;50.91;102274.72;1726457;80;20929;-53
2021/10/08 09:56:35;;;;;;;24.72;4.95;;;;;;;11.04;51.75;102274.72;1726198;80;21055;-53
2021/10/08 09:59:05;;;;;;;17.85;4.75;;;;;;;11.09;51.58;102289.91;1734978;80;21032;-53
2021/10/08 10:01:34;;;;;;;13.32;3.90;;;;;;;11.09;49.63;102269.30;1730759;80;20959;-53
2021/10/08 10:04:03;;;;;;;17.35;5.25;;;;;;;11.12;49.71;102270.60;1706109;81;22297;-53
2021/10/08 10:06:31;;;;;;;14.70;4.58;;;;;;;11.16;50.45;102278.17;1709722;81;21078;-53
2021/10/08 10:09:01;;;;;;;15.05;4.30;;;;;;;11.20;50.50;102291.12;1718377;81;21101;-53
2021/10/08 10:11:28;;;;;;;19.75;5.28;;;;;;;11.23;50.43;102283.02;1731760;80;21396;-54
2021/10/08 10:13:57;;;;;;;18.50;4.75;;;;;;;11.24;50.91;102267.34;1723188;81;20918;-53
2021/10/08 10:16:25;;;;;;;21.75;4.78;;;;;;;11.25;51.33;102251.66;1728624;80;22283;-53
2021/10/08 10:19:12;;;;;;;25.08;4.70;;;;;;;11.32;51.83;102261.40;1723691;79;21739;-53
2021/10/08 10:21:56;;;;;;;20.35;4.45;;;;;;;11.42;50.22;102253.66;1723907;81;20912;-53
2021/10/08 10:24:29;;;;;;;17.20;4.35;;;;;;;11.46;49.94;102260.75;1726721;81;21817;-53
2021/10/08 10:26:57;;;;;;;25.25;5.08;;;;;;;11.52;50.10;102270.53;1727280;81;21748;-53
2021/10/08 10:29:24;;;;;;;17.77;4.37;;;;;;;11.56;50.02;102280.75;1724739;80;21083;-54
2021/10/08 10:31:51;;;;;;;21.70;4.15;;;;;;;11.56;49.39;102266.88;1727976;80;21543;-54
2021/10/08 10:34:18;;;;;;;27.87;4.87;;;;;;;11.54;50.25;102260.65;1684033;81;21153;-52
2021/10/08 10:36:45;;;;;;;18.60;4.35;;;;;;;11.56;49.94;102265.98;1728379;81;21015;-53
2021/10/08 10:39:20;;;;;;;24.12;4.30;;;;;;;11.58;50.10;102252.06;1723425;80;22179;-54
2021/10/08 10:42:13;;;;;;;22.48;5.42;;;;;;;11.63;50.42;102247.98;1725044;81;21145;-54
2021/10/08 10:44:40;;;;;;;12.85;3.80;;;;;;;11.67;50.76;102248.35;1728584;80;21412;-53
2021/10/08 10:47:18;;;;;;;19.25;4.45;;;;;;;11.71;50.29;102264.41;1737585;80;21074;-52
2021/10/08 10:49:56;;;;;;;17.10;4.50;;;;;;;11.73;50.42;102238.88;1736251;80;21071;-53
2021/10/08 10:52:24;;;;;;;22.70;4.05;;;;;;;11.74;51.78;102250.92;1734758;80;21066;-54
2021/10/08 10:54:55;;;;;;;23.30;4.90;;;;;;;11.82;52.18;102225.72;1741469;80;21575;-52
2021/10/08 10:57:31;;;;;;;18.52;4.08;;;;;;;11.89;51.78;102251.60;1732575;80;21134;-53
2021/10/08 11:00:41;;;;;;;19.67;4.87;;;;;;;11.94;50.71;102254.22;1737767;80;21431;-53
2021/10/08 11:03:18;;;;;;;20.20;4.50;;;;;;;11.96;51.44;102251.92;1734786;80;22234;-53
2021/10/08 11:06:05;;;;;;;28.12;4.87;;;;;;;12.04;50.78;102239.25;1733031;80;21788;-53
2021/10/08 11:08:32;;;;;;;18.85;4.35;;;;;;;12.01;50.00;102219.15;1735576;80;21101;-53
2021/10/08 11:11:08;;;;;;;26.07;3.77;;;;;;;12.00;50.49;102256.32;1738438;80;21285;-54
2021/10/08 11:13:37;;;;;;;21.33;4.85;;;;;;;11.97;50.96;102248.31;1736885;80;21026;-53
2021/10/08 11:16:09;;;;;;;22.95;4.53;;;;;;;11.94;50.42;102236.28;1731519;80;21427;-53
2021/10/08 11:18:46;;;;;;;23.35;5.20;;;;;;;11.95;50.95;102242.08;1735367;80;21090;-53
2021/10/08 11:21:32;;;;;;;19.32;4.55;;;;;;;11.96;52.12;102226.37;1733667;80;21532;-53
2021/10/08 11:24:21;;;;;;;16.75;4.37;;;;;;;11.99;52.18;102224.98;1734872;80;21106;-53
2021/10/08 11:26:57;;;;;;;20.23;4.50;;;;;;;11.98;51.84;102216.97;1736520;80;21535;-53
2021/10/08 11:29:30;;;;;;;22.87;4.10;;;;;;;12.06;51.94;102216.87;1729479;80;20990;-53